Time;durP1;ratioP1;P1;durP2;ratioP2;P2;SDS_P1;SDS_P2;PMS_P1;PMS_P2;Temp;Humidity;BMP_temperature;BMP_pressure;BME280_temperature;BME280_humidity;BME280_pressure;Samples;Min_cycle;Max_cycle;Signal;HPM_P1;HPM_P2
2023/04/04 00:01:08;;;;;;;3.25;1.60;;;;;;;;;;5000837;28;20310;-91
2023/04/04 00:03:34;;;;;;;3.80;1.98;;;;;;;;;;5016967;28;20269;-91
2023/04/04 00:06:01;;;;;;;2.63;1.50;;;;;;;;;;5000585;28;20522;-92
2023/04/04 00:08:28;;;;;;;3.47;1.85;;;;;;;;;;5017214;28;20183;-92
2023/04/04 00:10:58;;;;;;;2.60;1.20;;;;;;;;;;5017086;28;20177;-91
2023/04/04 00:13:25;;;;;;;4.00;1.33;;;;;;;;;;5018200;28;20200;-91
2023/04/04 00:15:51;;;;;;;2.40;1.50;;;;;;;;;;5016958;28;20196;-91
2023/04/04 00:18:17;;;;;;;2.38;1.70;;;;;;;;;;5016259;28;20181;-92
2023/04/04 00:20:43;;;;;;;5.10;1.65;;;;;;;;;;5000847;28;20228;-91
2023/04/04 00:23:12;;;;;;;2.22;1.48;;;;;;;;;;5000019;28;20183;-91
2023/04/04 00:25:38;;;;;;;2.50;1.58;;;;;;;;;;5018498;28;20598;-92
2023/04/04 00:28:04;;;;;;;2.22;1.42;;;;;;;;;;5019246;28;20199;-92
2023/04/04 00:30:30;;;;;;;1.80;1.50;;;;;;;;;;5019258;28;20605;-91
2023/04/04 00:32:57;;;;;;;11.48;2.20;;;;;;;;;;5018418;28;20173;-92
2023/04/04 00:35:23;;;;;;;3.38;1.95;;;;;;;;;;5017632;28;20184;-91
2023/04/04 00:37:49;;;;;;;3.13;1.83;;;;;;;;;;5022903;28;20181;-92
2023/04/04 00:40:15;;;;;;;2.38;1.75;;;;;;;;;;5018064;28;20232;-92
2023/04/04 00:42:41;;;;;;;5.18;1.90;;;;;;;;;;5018596;28;20214;-91
2023/04/04 00:45:07;;;;;;;4.82;1.58;;;;;;;;;;5020111;28;20194;-89
2023/04/04 00:47:34;;;;;;;3.10;1.50;;;;;;;;;;5022971;28;20180;-92
2023/04/04 00:50:01;;;;;;;4.15;1.88;;;;;;;;;;5019598;28;20578;-92
2023/04/04 00:52:27;;;;;;;3.80;1.83;;;;;;;;;;5021218;28;20172;-91
2023/04/04 00:54:55;;;;;;;4.97;1.38;;;;;;;;;;5019824;28;20247;-92
2023/04/04 00:57:23;;;;;;;6.03;2.55;;;;;;;;;;5022663;28;20160;-88
2023/04/04 00:59:49;;;;;;;3.75;1.70;;;;;;;;;;5025978;28;20208;-92
2023/04/04 01:02:15;;;;;;;3.53;1.50;;;;;;;;;;5005718;28;20725;-92
2023/04/04 01:04:41;;;;;;;5.38;1.80;;;;;;;;;;5020844;28;20259;-92
2023/04/04 01:07:07;;;;;;;5.63;2.20;;;;;;;;;;5003278;28;20299;-90
2023/04/04 01:09:34;;;;;;;2.38;1.58;;;;;;;;;;5020611;28;20198;-92
2023/04/04 01:12:01;;;;;;;2.22;1.65;;;;;;;;;;5023104;28;20172;-92
2023/04/04 01:14:27;;;;;;;3.83;1.35;;;;;;;;;;5021728;28;20220;-92
2023/04/04 01:16:53;;;;;;;2.83;1.90;;;;;;;;;;5019263;28;20186;-92
2023/04/04 01:19:31;;;;;;;3.47;1.50;;;;;;;;;;5019788;28;20171;-92
2023/04/04 01:21:59;;;;;;;2.80;1.75;;;;;;;;;;5021089;28;20693;-92
2023/04/04 01:24:26;;;;;;;3.28;1.80;;;;;;;;;;5023181;28;20626;-92
2023/04/04 01:26:53;;;;;;;3.50;1.92;;;;;;;;;;5020458;28;20191;-92
2023/04/04 01:29:19;;;;;;;5.55;2.13;;;;;;;;;;5020775;28;20198;-92
2023/04/04 01:31:50;;;;;;;3.35;1.55;;;;;;;;;;5020356;28;20265;-92
2023/04/04 01:34:42;;;;;;;3.40;2.25;;;;;;;;;;5018927;28;20183;-91
2023/04/04 01:37:27;;;;;;;4.07;3.25;;;;;;;;;;5019379;28;20172;-92
2023/04/04 01:39:59;;;;;;;3.60;1.65;;;;;;;;;;5018968;28;20175;-92
2023/04/04 01:42:25;;;;;;;3.33;2.05;;;;;;;;;;5018181;28;20690;-92
2023/04/04 01:44:55;;;;;;;3.67;2.10;;;;;;;;;;5018504;28;20175;-93
2023/04/04 01:47:22;;;;;;;2.20;1.63;;;;;;;;;;5020200;28;20164;-92
2023/04/04 01:49:48;;;;;;;3.55;1.80;;;;;;;;;;5023217;28;20285;-92
2023/04/04 01:52:14;;;;;;;3.10;1.70;;;;;;;;;;5021418;28;20208;-91
2023/04/04 01:54:40;;;;;;;3.20;2.00;;;;;;;;;;5019779;28;20195;-92
2023/04/04 01:57:07;;;;;;;7.20;2.65;;;;;;;;;;5002997;28;20185;-92
2023/04/04 01:59:33;;;;;;;3.25;2.10;;;;;;;;;;5019983;28;20514;-92
2023/04/04 02:01:59;;;;;;;4.90;2.00;;;;;;;;;;5001639;28;20606;-92
2023/04/04 02:04:25;;;;;;;6.05;2.10;;;;;;;;;;5001603;28;20227;-92
2023/04/04 02:06:51;;;;;;;3.30;2.22;;;;;;;;;;5018676;28;20173;-92
2023/04/04 02:09:18;;;;;;;4.35;2.08;;;;;;;;;;5018093;28;20179;-92
2023/04/04 02:11:44;;;;;;;4.20;2.00;;;;;;;;;;5018658;28;20202;-91
2023/04/04 02:14:10;;;;;;;5.55;2.65;;;;;;;;;;5020116;28;20171;-92
2023/04/04 02:16:36;;;;;;;3.15;1.75;;;;;;;;;;5020697;28;20178;-92
2023/04/04 02:19:02;;;;;;;4.32;3.25;;;;;;;;;;5021739;28;20174;-92
2023/04/04 02:21:28;;;;;;;4.10;2.05;;;;;;;;;;5020699;28;20199;-91
2023/04/04 02:23:54;;;;;;;8.75;2.10;;;;;;;;;;5020197;28;20188;-91
2023/04/04 02:26:21;;;;;;;3.40;2.03;;;;;;;;;;5021692;28;20168;-92
2023/04/04 02:28:47;;;;;;;2.55;1.95;;;;;;;;;;5003995;28;20627;-91
2023/04/04 02:31:13;;;;;;;9.32;2.08;;;;;;;;;;5020532;28;20184;-87
2023/04/04 02:33:39;;;;;;;1.98;1.70;;;;;;;;;;5021449;28;20202;-91
2023/04/04 02:36:05;;;;;;;4.85;2.08;;;;;;;;;;5003742;28;20210;-91
2023/04/04 02:38:31;;;;;;;2.72;2.00;;;;;;;;;;5026182;28;20194;-91
2023/04/04 02:40:57;;;;;;;2.45;1.80;;;;;;;;;;5024676;28;20227;-91
2023/04/04 02:43:23;;;;;;;4.43;2.20;;;;;;;;;;5025620;28;20190;-92
2023/04/04 02:45:49;;;;;;;3.67;2.42;;;;;;;;;;5025689;28;20206;-91
2023/04/04 02:48:15;;;;;;;2.67;1.85;;;;;;;;;;5025156;28;20177;-91
2023/04/04 02:50:41;;;;;;;2.60;2.13;;;;;;;;;;5010401;28;20708;-91
2023/04/04 02:53:07;;;;;;;2.38;2.15;;;;;;;;;;5025655;28;20183;-92
2023/04/04 02:55:33;;;;;;;6.07;2.30;;;;;;;;;;5007655;28;20241;-92
2023/04/04 02:58:00;;;;;;;8.60;2.40;;;;;;;;;;5025005;28;20186;-91
2023/04/04 03:00:26;;;;;;;4.38;2.20;;;;;;;;;;5023461;28;20720;-91
2023/04/04 03:02:56;;;;;;;3.03;1.98;;;;;;;;;;5027636;28;20305;-90
2023/04/04 03:05:26;;;;;;;5.50;2.30;;;;;;;;;;5004149;28;20190;-90
2023/04/04 03:07:59;;;;;;;3.47;2.50;;;;;;;;;;5022877;28;20170;-91
2023/04/04 03:10:26;;;;;;;3.33;2.25;;;;;;;;;;5021369;28;20185;-92
2023/04/04 03:12:52;;;;;;;3.03;2.05;;;;;;;;;;5022612;28;20581;-91
2023/04/04 03:15:18;;;;;;;2.83;2.10;;;;;;;;;;5020778;28;20190;-91
2023/04/04 03:17:45;;;;;;;5.70;2.40;;;;;;;;;;5004631;28;20210;-93
2023/04/04 03:20:15;;;;;;;3.15;2.03;;;;;;;;;;5021979;28;20171;-92
2023/04/04 03:22:41;;;;;;;6.18;2.53;;;;;;;;;;5023181;28;20206;-92
2023/04/04 03:25:08;;;;;;;3.78;2.22;;;;;;;;;;5020718;28;20206;-92
2023/04/04 03:27:34;;;;;;;3.65;2.40;;;;;;;;;;5003647;28;20183;-92
2023/04/04 03:30:01;;;;;;;2.72;1.92;;;;;;;;;;5020734;28;20527;-92
2023/04/04 03:32:27;;;;;;;1.90;1.70;;;;;;;;;;5022083;28;20599;-92
2023/04/04 03:34:53;;;;;;;4.63;2.40;;;;;;;;;;5021402;28;20171;-92
2023/04/04 03:37:20;;;;;;;2.40;1.98;;;;;;;;;;5021333;28;20252;-92
2023/04/04 03:39:46;;;;;;;3.33;2.13;;;;;;;;;;5021512;28;20615;-92
2023/04/04 03:42:12;;;;;;;6.00;2.80;;;;;;;;;;5020923;28;20218;-92
2023/04/04 03:44:42;;;;;;;3.97;2.65;;;;;;;;;;5003603;28;20187;-93
2023/04/04 03:47:08;;;;;;;2.85;2.13;;;;;;;;;;5022099;28;20580;-92
2023/04/04 03:49:34;;;;;;;4.13;2.20;;;;;;;;;;5003555;28;20540;-92
2023/04/04 03:52:01;;;;;;;3.33;2.20;;;;;;;;;;5019798;28;20174;-92
2023/04/04 03:54:28;;;;;;;2.58;1.80;;;;;;;;;;5021223;28;20221;-92
2023/04/04 03:56:54;;;;;;;2.78;2.03;;;;;;;;;;5022705;28;20631;-93
2023/04/04 03:59:20;;;;;;;5.10;2.20;;;;;;;;;;5003585;28;20187;-91
2023/04/04 04:01:46;;;;;;;6.15;2.70;;;;;;;;;;5028007;28;20194;-92
2023/04/04 04:04:12;;;;;;;3.30;1.95;;;;;;;;;;5008783;28;20225;-92
2023/04/04 04:06:38;;;;;;;4.68;2.15;;;;;;;;;;5008918;28;20179;-91
2023/04/04 04:09:04;;;;;;;4.15;2.35;;;;;;;;;;5024759;28;20182;-93
2023/04/04 04:11:30;;;;;;;4.38;2.15;;;;;;;;;;5004712;28;20194;-93
2023/04/04 04:13:56;;;;;;;2.40;2.00;;;;;;;;;;5021638;28;20179;-93
2023/04/04 04:16:22;;;;;;;7.70;3.15;;;;;;;;;;5004371;28;20265;-92
2023/04/04 04:18:48;;;;;;;4.03;2.20;;;;;;;;;;5022935;28;20171;-93
2023/04/04 04:21:15;;;;;;;4.38;2.65;;;;;;;;;;5002731;28;20209;-92
2023/04/04 04:23:41;;;;;;;2.83;2.45;;;;;;;;;;5002350;28;20187;-93
2023/04/04 04:26:07;;;;;;;6.10;2.55;;;;;;;;;;5019393;28;20185;-93
2023/04/04 04:28:33;;;;;;;5.20;2.78;;;;;;;;;;5019828;28;20174;-92
2023/04/04 04:31:06;;;;;;;6.40;3.30;;;;;;;;;;5003261;28;20540;-92
2023/04/04 04:33:32;;;;;;;2.35;2.10;;;;;;;;;;5021399;28;20209;-92
2023/04/04 04:36:00;;;;;;;5.63;2.80;;;;;;;;;;5019961;28;20178;-92
2023/04/04 04:38:26;;;;;;;4.03;2.42;;;;;;;;;;5017326;28;20176;-92
2023/04/04 04:40:52;;;;;;;3.92;1.83;;;;;;;;;;5017840;28;20198;-92
2023/04/04 04:43:18;;;;;;;4.95;2.28;;;;;;;;;;5010058;28;20195;-93
2023/04/04 04:45:44;;;;;;;6.43;2.30;;;;;;;;;;4998511;28;20659;-92
2023/04/04 04:48:10;;;;;;;5.20;2.55;;;;;;;;;;4999672;28;20179;-92
2023/04/04 04:50:36;;;;;;;2.42;2.22;;;;;;;;;;5002574;28;20171;-93
2023/04/04 04:53:02;;;;;;;5.50;2.47;;;;;;;;;;5003577;28;20230;-92
2023/04/04 04:55:28;;;;;;;3.30;2.88;;;;;;;;;;4987322;28;20425;-93
2023/04/04 04:57:54;;;;;;;3.67;2.30;;;;;;;;;;5005557;28;20178;-92
2023/04/04 05:00:21;;;;;;;4.27;2.77;;;;;;;;;;5004449;28;20536;-93
2023/04/04 05:02:47;;;;;;;3.42;2.13;;;;;;;;;;5005500;28;20478;-92
2023/04/04 05:05:13;;;;;;;5.13;2.63;;;;;;;;;;5007476;28;20548;-93
2023/04/04 05:07:39;;;;;;;7.53;2.40;;;;;;;;;;5005691;28;20218;-93
2023/04/04 05:10:05;;;;;;;8.83;2.60;;;;;;;;;;5004524;28;20215;-93
2023/04/04 05:12:31;;;;;;;3.47;2.25;;;;;;;;;;4988560;28;20457;-92
2023/04/04 05:14:57;;;;;;;5.00;3.10;;;;;;;;;;5005129;28;20176;-93
2023/04/04 05:17:23;;;;;;;10.50;2.63;;;;;;;;;;5009753;28;20517;-90
2023/04/04 05:19:49;;;;;;;5.05;2.70;;;;;;;;;;4990704;28;20427;-92
2023/04/04 05:22:15;;;;;;;3.55;2.10;;;;;;;;;;5005478;28;20287;-93
2023/04/04 05:24:41;;;;;;;4.28;2.58;;;;;;;;;;5006238;28;20184;-93
2023/04/04 05:27:07;;;;;;;4.18;2.35;;;;;;;;;;5008477;28;20237;-92
2023/04/04 05:29:33;;;;;;;5.90;3.20;;;;;;;;;;5018177;28;20194;-92
2023/04/04 05:32:00;;;;;;;4.00;2.17;;;;;;;;;;5006093;28;20469;-93
2023/04/04 05:34:26;;;;;;;6.43;3.17;;;;;;;;;;5006880;28;20533;-92
2023/04/04 05:36:52;;;;;;;4.07;2.85;;;;;;;;;;5005812;28;20209;-93
2023/04/04 05:39:18;;;;;;;5.15;2.85;;;;;;;;;;5006328;28;20357;-93
2023/04/04 05:41:44;;;;;;;6.67;3.00;;;;;;;;;;5022494;28;20191;-93
2023/04/04 05:44:10;;;;;;;2.85;2.47;;;;;;;;;;5023128;28;20421;-93
2023/04/04 05:46:36;;;;;;;4.18;2.20;;;;;;;;;;5021810;28;20172;-93
2023/04/04 05:49:02;;;;;;;3.03;2.28;;;;;;;;;;4998904;28;20269;-86
2023/04/04 05:51:28;;;;;;;4.68;2.30;;;;;;;;;;5018945;28;20237;-86
2023/04/04 05:53:54;;;;;;;8.40;2.93;;;;;;;;;;5019923;28;20190;-86
2023/04/04 05:56:20;;;;;;;8.10;2.77;;;;;;;;;;5018679;28;20409;-85
2023/04/04 05:58:46;;;;;;;2.72;2.25;;;;;;;;;;5018453;28;20426;-85
2023/04/04 06:01:12;;;;;;;3.17;2.55;;;;;;;;;;5002062;28;20182;-86
2023/04/04 06:03:38;;;;;;;6.40;2.57;;;;;;;;;;5002105;28;20250;-85
2023/04/04 06:06:05;;;;;;;8.27;2.80;;;;;;;;;;5002069;28;20563;-85
2023/04/04 06:08:31;;;;;;;4.03;2.47;;;;;;;;;;5019064;28;20414;-86
2023/04/04 06:10:57;;;;;;;4.35;2.63;;;;;;;;;;5019199;28;20556;-85
2023/04/04 06:13:23;;;;;;;15.77;2.53;;;;;;;;;;5019078;28;20198;-86
2023/04/04 06:15:49;;;;;;;2.58;1.80;;;;;;;;;;5001682;28;20179;-85
2023/04/04 06:18:16;;;;;;;2.08;1.88;;;;;;;;;;5018745;28;20596;-85
2023/04/04 06:20:42;;;;;;;6.22;2.85;;;;;;;;;;5019825;28;20170;-85
2023/04/04 06:23:08;;;;;;;4.68;2.70;;;;;;;;;;5018628;28;20186;-85
2023/04/04 06:25:35;;;;;;;2.47;2.08;;;;;;;;;;5017535;28;20623;-82
2023/04/04 06:28:02;;;;;;;4.70;2.40;;;;;;;;;;5001034;28;20186;-82
2023/04/04 06:30:28;;;;;;;4.72;2.20;;;;;;;;;;5017640;28;20634;-83
2023/04/04 06:32:54;;;;;;;5.13;2.40;;;;;;;;;;5000895;28;20219;-82
2023/04/04 06:35:21;;;;;;;4.28;2.90;;;;;;;;;;5001753;28;20187;-82
2023/04/04 06:37:47;;;;;;;4.25;2.72;;;;;;;;;;5017761;28;20184;-84
2023/04/04 06:40:13;;;;;;;4.28;2.30;;;;;;;;;;5017940;28;20175;-83
2023/04/04 06:42:40;;;;;;;4.70;2.50;;;;;;;;;;5018193;28;20188;-82
2023/04/04 06:45:07;;;;;;;3.35;2.55;;;;;;;;;;5001593;28;20181;-83
2023/04/04 06:47:34;;;;;;;4.18;2.35;;;;;;;;;;5017409;28;20639;-83
2023/04/04 06:50:00;;;;;;;5.10;2.25;;;;;;;;;;5001556;28;20180;-83
2023/04/04 06:52:26;;;;;;;5.80;2.17;;;;;;;;;;5017293;28;20212;-83
2023/04/04 06:54:52;;;;;;;1.95;1.80;;;;;;;;;;5001061;28;20436;-83
2023/04/04 06:57:18;;;;;;;2.43;2.23;;;;;;;;;;5017361;28;20187;-83
2023/04/04 06:59:44;;;;;;;3.63;2.15;;;;;;;;;;5000847;28;20453;-83
2023/04/04 07:02:10;;;;;;;4.32;2.45;;;;;;;;;;5000179;28;20196;-83
2023/04/04 07:04:38;;;;;;;3.15;2.35;;;;;;;;;;5000387;28;20236;-83
2023/04/04 07:07:04;;;;;;;6.50;1.95;;;;;;;;;;5002715;28;20204;-83
2023/04/04 07:09:30;;;;;;;3.60;2.07;;;;;;;;;;5001150;28;20194;-84
2023/04/04 07:11:56;;;;;;;6.28;2.30;;;;;;;;;;5017371;28;20460;-83
2023/04/04 07:14:24;;;;;;;4.95;2.47;;;;;;;;;;5017273;28;20192;-82
2023/04/04 07:16:50;;;;;;;3.00;2.30;;;;;;;;;;5000843;28;20252;-83
2023/04/04 07:19:16;;;;;;;10.13;2.20;;;;;;;;;;5017670;28;20705;-83
2023/04/04 07:21:43;;;;;;;4.03;2.20;;;;;;;;;;5000826;28;20191;-83
2023/04/04 07:24:09;;;;;;;2.35;1.73;;;;;;;;;;5017304;28;20281;-84
2023/04/04 07:26:36;;;;;;;2.08;1.88;;;;;;;;;;5016940;28;20194;-82
2023/04/04 07:29:02;;;;;;;3.08;1.98;;;;;;;;;;5000834;28;20241;-84
2023/04/04 07:31:28;;;;;;;4.25;2.40;;;;;;;;;;5017302;28;20308;-83
2023/04/04 07:33:54;;;;;;;8.35;2.55;;;;;;;;;;5000104;28;20535;-83
2023/04/04 07:36:20;;;;;;;3.10;2.20;;;;;;;;;;5001121;28;20196;-82
2023/04/04 07:38:47;;;;;;;2.97;1.90;;;;;;;;;;5016177;28;20213;-83
2023/04/04 07:41:13;;;;;;;4.88;2.10;;;;;;;;;;5000437;28;20186;-81
2023/04/04 07:43:40;;;;;;;3.70;2.42;;;;;;;;;;4999966;28;20186;-82
2023/04/04 07:46:06;;;;;;;5.60;2.63;;;;;;;;;;5016317;28;20531;-81
2023/04/04 07:48:38;;;;;;;4.00;2.00;;;;;;;;;;5000365;28;20192;-82
2023/04/04 07:51:04;;;;;;;3.28;2.10;;;;;;;;;;5017852;28;20198;-81
2023/04/04 07:53:30;;;;;;;4.50;2.58;;;;;;;;;;5016158;28;20179;-81
2023/04/04 07:55:56;;;;;;;3.30;2.40;;;;;;;;;;5017333;28;20182;-82
2023/04/04 07:58:22;;;;;;;3.90;2.28;;;;;;;;;;5017481;28;20646;-80
2023/04/04 08:00:48;;;;;;;3.60;2.47;;;;;;;;;;4999979;28;20194;-81
2023/04/04 08:03:16;;;;;;;3.95;2.47;;;;;;;;;;4998994;28;20234;-82
2023/04/04 08:05:42;;;;;;;4.28;3.60;;;;;;;;;;5015701;28;20217;-82
2023/04/04 08:08:08;;;;;;;9.25;4.60;;;;;;;;;;5017484;28;20229;-84
2023/04/04 08:10:34;;;;;;;2.78;2.17;;;;;;;;;;5015224;28;20175;-82
2023/04/04 08:13:00;;;;;;;4.15;2.40;;;;;;;;;;4999560;28;20209;-82
2023/04/04 08:15:26;;;;;;;3.95;2.08;;;;;;;;;;5015540;28;20226;-84
2023/04/04 08:17:54;;;;;;;3.05;2.15;;;;;;;;;;5015381;28;20467;-83
2023/04/04 08:20:20;;;;;;;3.13;1.70;;;;;;;;;;4999553;28;20233;-83
2023/04/04 08:22:47;;;;;;;2.47;2.17;;;;;;;;;;5015193;28;20182;-82
2023/04/04 08:25:13;;;;;;;7.75;2.35;;;;;;;;;;4999061;28;20189;-84
2023/04/04 08:27:42;;;;;;;3.80;1.90;;;;;;;;;;5016200;28;20178;-85
2023/04/04 08:30:09;;;;;;;6.28;2.10;;;;;;;;;;5015719;28;20662;-82
2023/04/04 08:32:35;;;;;;;2.92;2.13;;;;;;;;;;5014904;28;20245;-83
2023/04/04 08:35:01;;;;;;;5.57;2.10;;;;;;;;;;5015156;28;20630;-83
2023/04/04 08:37:29;;;;;;;2.97;2.00;;;;;;;;;;5015030;28;20540;-84
2023/04/04 08:39:55;;;;;;;2.63;1.80;;;;;;;;;;5014801;28;20183;-83
2023/04/04 08:42:22;;;;;;;4.07;2.10;;;;;;;;;;5015380;28;20545;-83
2023/04/04 08:44:49;;;;;;;6.78;2.28;;;;;;;;;;5014886;28;20189;-84
2023/04/04 08:47:16;;;;;;;5.18;2.00;;;;;;;;;;4998978;28;20179;-85
2023/04/04 08:49:43;;;;;;;8.90;3.72;;;;;;;;;;5015387;28;20274;-86
2023/04/04 08:52:11;;;;;;;3.35;2.33;;;;;;;;;;5017397;28;20199;-86
2023/04/04 08:54:39;;;;;;;2.03;1.65;;;;;;;;;;5015730;28;20586;-85
2023/04/04 08:57:07;;;;;;;3.70;2.00;;;;;;;;;;5016413;28;20171;-85
2023/04/04 08:59:33;;;;;;;4.50;1.90;;;;;;;;;;5015246;28;20470;-86
2023/04/04 09:02:08;;;;;;;2.50;1.20;;;;;;;;;;5016352;28;20429;-86
2023/04/04 09:04:34;;;;;;;9.67;2.37;;;;;;;;;;5015152;28;20473;-84
2023/04/04 09:07:04;;;;;;;4.53;1.80;;;;;;;;;;5014101;28;20444;-84
2023/04/04 09:09:33;;;;;;;2.90;1.80;;;;;;;;;;5012999;28;20425;-84
2023/04/04 09:12:05;;;;;;;2.70;1.60;;;;;;;;;;4997420;28;20473;-84
2023/04/04 09:14:31;;;;;;;7.10;1.70;;;;;;;;;;5014011;28;20412;-84
2023/04/04 09:16:57;;;;;;;3.17;2.20;;;;;;;;;;5013207;28;20465;-85
2023/04/04 09:19:23;;;;;;;6.93;4.17;;;;;;;;;;5013645;28;20452;-86
2023/04/04 09:21:50;;;;;;;2.80;2.23;;;;;;;;;;5012750;28;20465;-85
2023/04/04 09:24:20;;;;;;;2.60;1.90;;;;;;;;;;5014107;28;20410;-85
2023/04/04 09:26:51;;;;;;;2.23;1.83;;;;;;;;;;4997254;28;20414;-87
2023/04/04 09:29:21;;;;;;;6.10;1.70;;;;;;;;;;5013656;28;20464;-85
2023/04/04 09:31:48;;;;;;;4.00;1.87;;;;;;;;;;5012843;28;20486;-86
2023/04/04 09:34:17;;;;;;;3.40;1.83;;;;;;;;;;5013220;28;20437;-84
2023/04/04 09:36:47;;;;;;;4.57;1.70;;;;;;;;;;5014955;28;20464;-84
2023/04/04 09:39:18;;;;;;;4.17;1.77;;;;;;;;;;4997074;28;20453;-86
2023/04/04 09:41:45;;;;;;;2.27;2.07;;;;;;;;;;5013214;28;20418;-86
2023/04/04 09:44:11;;;;;;;2.43;1.73;;;;;;;;;;4997058;28;20399;-86
2023/04/04 09:46:38;;;;;;;6.20;2.80;;;;;;;;;;5012994;28;20405;-86
2023/04/04 09:49:04;;;;;;;2.60;2.17;;;;;;;;;;5014706;28;20385;-86
2023/04/04 09:51:43;;;;;;;3.53;2.20;;;;;;;;;;5014420;28;20432;-86
2023/04/04 09:54:10;;;;;;;3.47;2.37;;;;;;;;;;5013245;28;20396;-86
2023/04/04 09:56:42;;;;;;;3.60;2.10;;;;;;;;;;4997093;28;20425;-84
2023/04/04 09:59:08;;;;;;;3.27;2.07;;;;;;;;;;5012818;28;20512;-85
2023/04/04 10:01:34;;;;;;;2.80;2.17;;;;;;;;;;4996591;28;20421;-87
2023/04/04 10:04:00;;;;;;;2.97;2.17;;;;;;;;;;5013571;28;20837;-86
2023/04/04 10:06:26;;;;;;;2.40;1.90;;;;;;;;;;5012998;28;20385;-86
2023/04/04 10:08:53;;;;;;;6.80;2.33;;;;;;;;;;5012490;28;20414;-87
2023/04/04 10:11:29;;;;;;;2.23;1.90;;;;;;;;;;4996275;28;20465;-87
2023/04/04 10:13:56;;;;;;;7.70;2.50;;;;;;;;;;5012525;28;20427;-87
2023/04/04 10:16:24;;;;;;;2.40;1.83;;;;;;;;;;5000768;28;20392;-86
2023/04/04 10:18:51;;;;;;;4.03;1.70;;;;;;;;;;5016751;28;20433;-86
2023/04/04 10:21:17;;;;;;;2.00;1.60;;;;;;;;;;5013855;28;20418;-86
2023/04/04 10:23:46;;;;;;;3.30;1.97;;;;;;;;;;5012624;28;20476;-87
2023/04/04 10:26:13;;;;;;;3.13;2.60;;;;;;;;;;5014358;28;20381;-86
2023/04/04 10:28:39;;;;;;;4.13;2.70;;;;;;;;;;5007119;28;20393;-86
2023/04/04 10:31:18;;;;;;;3.43;3.07;;;;;;;;;;4994162;28;20393;-86
2023/04/04 10:33:52;;;;;;;7.17;2.50;;;;;;;;;;4993296;28;20438;-86
2023/04/04 10:36:22;;;;;;;3.60;2.17;;;;;;;;;;4994116;28;20402;-86
2023/04/04 10:38:51;;;;;;;3.83;3.33;;;;;;;;;;4995964;28;20423;-85
2023/04/04 10:41:18;;;;;;;2.53;2.30;;;;;;;;;;5008579;28;20418;-85
2023/04/04 10:43:45;;;;;;;6.47;2.10;;;;;;;;;;5017538;28;20402;-87
2023/04/04 10:46:13;;;;;;;3.30;2.03;;;;;;;;;;5017133;28;20774;-86
2023/04/04 10:48:40;;;;;;;3.00;1.80;;;;;;;;;;5015875;28;20426;-86
2023/04/04 10:51:07;;;;;;;5.13;2.33;;;;;;;;;;5015931;28;20912;-86
2023/04/04 10:53:35;;;;;;;3.93;2.20;;;;;;;;;;4999677;28;20414;-86
2023/04/04 10:56:02;;;;;;;3.33;2.27;;;;;;;;;;5017020;28;20400;-86
2023/04/04 10:58:28;;;;;;;3.30;2.10;;;;;;;;;;5015780;28;20464;-87
2023/04/04 11:00:55;;;;;;;3.03;1.97;;;;;;;;;;5015710;28;20483;-86
2023/04/04 11:03:21;;;;;;;4.27;2.67;;;;;;;;;;5015710;28;20474;-86
2023/04/04 11:05:50;;;;;;;4.87;2.40;;;;;;;;;;5015503;28;20464;-87
2023/04/04 11:08:23;;;;;;;3.23;2.20;;;;;;;;;;5015812;28;20424;-86
2023/04/04 11:10:51;;;;;;;3.00;2.80;;;;;;;;;;5015168;28;20921;-86
2023/04/04 11:13:20;;;;;;;4.10;2.27;;;;;;;;;;5015288;28;20485;-86
2023/04/04 11:16:00;;;;;;;2.50;2.20;;;;;;;;;;5015330;28;20396;-88
2023/04/04 11:18:47;;;;;;;2.57;2.37;;;;;;;;;;5000546;28;20441;-88
2023/04/04 11:21:15;;;;;;;2.17;1.90;;;;;;;;;;4997487;28;20481;-88
2023/04/04 11:23:47;;;;;;;3.97;2.03;;;;;;;;;;4996069;28;20461;-88
2023/04/04 11:26:13;;;;;;;7.20;2.60;;;;;;;;;;4996039;28;20450;-88
2023/04/04 11:28:39;;;;;;;4.50;3.27;;;;;;;;;;5000371;28;20414;-88
2023/04/04 11:31:19;;;;;;;7.30;2.07;;;;;;;;;;5018541;28;20509;-87
2023/04/04 11:34:00;;;;;;;4.03;2.53;;;;;;;;;;5023678;28;20417;-89
2023/04/04 11:36:35;;;;;;;3.97;2.27;;;;;;;;;;5015667;28;20397;-88
2023/04/04 11:39:24;;;;;;;9.50;3.13;;;;;;;;;;4995597;28;20790;-86
2023/04/04 11:42:07;;;;;;;3.63;2.40;;;;;;;;;;5012076;28;20473;-88
2023/04/04 11:44:39;;;;;;;2.40;2.20;;;;;;;;;;4997105;28;20392;-89
2023/04/04 11:47:05;;;;;;;5.40;2.90;;;;;;;;;;5012286;28;20932;-88
2023/04/04 11:49:37;;;;;;;3.83;2.20;;;;;;;;;;5011802;28;20426;-85
2023/04/04 11:52:04;;;;;;;3.97;3.40;;;;;;;;;;5012082;28;20916;-87
2023/04/04 11:54:31;;;;;;;3.53;2.20;;;;;;;;;;5011613;28;20885;-86
2023/04/04 11:56:57;;;;;;;3.97;2.93;;;;;;;;;;5011074;28;20434;-87
2023/04/04 11:59:23;;;;;;;8.10;2.87;;;;;;;;;;5012671;28;20415;-87
2023/04/04 12:01:49;;;;;;;3.80;2.83;;;;;;;;;;5012109;28;20401;-88
2023/04/04 12:04:19;;;;;;;2.33;2.10;;;;;;;;;;4996759;28;20467;-88
2023/04/04 12:06:48;;;;;;;4.13;2.80;;;;;;;;;;5011854;28;20400;-87
2023/04/04 12:09:17;;;;;;;2.60;2.40;;;;;;;;;;5012219;28;20398;-86
2023/04/04 12:11:44;;;;;;;4.23;2.80;;;;;;;;;;5011621;28;20442;-87
2023/04/04 12:14:17;;;;;;;3.07;2.30;;;;;;;;;;5011094;28;20522;-87
2023/04/04 12:16:43;;;;;;;4.63;2.20;;;;;;;;;;5010928;28;20405;-87
2023/04/04 12:19:11;;;;;;;2.60;2.23;;;;;;;;;;4979083;28;20397;-88
2023/04/04 12:21:37;;;;;;;2.47;2.27;;;;;;;;;;4979037;28;20487;-87
2023/04/04 12:24:03;;;;;;;3.37;2.40;;;;;;;;;;5010924;28;20914;-86
2023/04/04 12:26:31;;;;;;;2.80;2.33;;;;;;;;;;5010720;28;20426;-86
2023/04/04 12:28:58;;;;;;;3.67;2.43;;;;;;;;;;5010906;28;20401;-87
2023/04/04 12:31:25;;;;;;;2.33;2.13;;;;;;;;;;4996124;28;20552;-87
2023/04/04 12:33:52;;;;;;;3.10;2.30;;;;;;;;;;4994831;28;20401;-88
2023/04/04 12:36:18;;;;;;;4.90;2.77;;;;;;;;;;4994579;28;20382;-89
2023/04/04 12:39:00;;;;;;;3.23;2.60;;;;;;;;;;4978623;28;20521;-87
2023/04/04 12:41:27;;;;;;;2.80;2.50;;;;;;;;;;5010668;28;20792;-88
2023/04/04 12:44:01;;;;;;;4.57;2.20;;;;;;;;;;4996975;28;20399;-88
2023/04/04 12:46:27;;;;;;;3.33;2.43;;;;;;;;;;4979151;28;20427;-89
2023/04/04 12:48:53;;;;;;;2.97;2.67;;;;;;;;;;4978880;28;20415;-88
2023/04/04 12:51:22;;;;;;;6.27;2.70;;;;;;;;;;5010837;28;20440;-86
2023/04/04 12:53:52;;;;;;;3.53;2.40;;;;;;;;;;5011090;28;20397;-88
2023/04/04 12:56:19;;;;;;;3.50;3.20;;;;;;;;;;5011218;28;20401;-88
2023/04/04 12:58:49;;;;;;;2.90;2.60;;;;;;;;;;4979074;28;20434;-88
2023/04/04 13:01:18;;;;;;;4.20;2.50;;;;;;;;;;5010773;28;20405;-87
2023/04/04 13:03:44;;;;;;;2.90;2.43;;;;;;;;;;4978353;28;20460;-89
2023/04/04 13:06:12;;;;;;;2.73;2.53;;;;;;;;;;4978867;28;20804;-89
2023/04/04 13:08:48;;;;;;;7.03;2.50;;;;;;;;;;5011410;28;20419;-91
2023/04/04 13:11:14;;;;;;;3.13;2.73;;;;;;;;;;5011937;28;20524;-91
2023/04/04 13:13:42;;;;;;;3.07;2.47;;;;;;;;;;4979195;28;20899;-90
2023/04/04 13:16:12;;;;;;;4.37;2.67;;;;;;;;;;5011076;28;20393;-90
2023/04/04 13:18:41;;;;;;;2.90;2.57;;;;;;;;;;5011160;28;20398;-90
2023/04/04 13:21:07;;;;;;;3.23;2.50;;;;;;;;;;5003737;28;20397;-90
2023/04/04 13:23:35;;;;;;;4.00;2.60;;;;;;;;;;5013901;28;20429;-89
2023/04/04 13:26:03;;;;;;;3.77;2.47;;;;;;;;;;5013548;28;20447;-90
2023/04/04 13:28:29;;;;;;;2.87;2.57;;;;;;;;;;4980643;28;20473;-88
2023/04/04 13:30:55;;;;;;;3.90;2.40;;;;;;;;;;5010805;28;20441;-90
2023/04/04 13:33:21;;;;;;;3.97;2.70;;;;;;;;;;5010776;28;20453;-91
2023/04/04 13:35:48;;;;;;;3.63;2.13;;;;;;;;;;5012210;28;20393;-91
2023/04/04 13:38:15;;;;;;;4.03;2.20;;;;;;;;;;5012998;28;20506;-91
2023/04/04 13:40:41;;;;;;;5.17;2.80;;;;;;;;;;4997629;28;20484;-91
2023/04/04 13:43:10;;;;;;;3.93;2.40;;;;;;;;;;4997670;28;20418;-93
2023/04/04 13:45:36;;;;;;;3.07;2.03;;;;;;;;;;5051769;28;20853;-93
2023/04/04 13:48:03;;;;;;;3.27;2.50;;;;;;;;;;5035099;28;20423;-91
2023/04/04 13:50:31;;;;;;;3.40;2.63;;;;;;;;;;5034584;28;20912;-90
2023/04/04 13:52:58;;;;;;;4.43;2.80;;;;;;;;;;5032163;28;20950;-92
2023/04/04 13:55:24;;;;;;;4.03;2.57;;;;;;;;;;5025048;28;20886;-90
2023/04/04 13:57:50;;;;;;;3.07;2.27;;;;;;;;;;4999119;28;20460;-92
2023/04/04 14:00:16;;;;;;;3.10;2.33;;;;;;;;;;5016108;28;20978;-90
2023/04/04 14:02:42;;;;;;;4.57;2.30;;;;;;;;;;5014105;28;20400;-90
2023/04/04 14:05:09;;;;;;;2.93;2.00;;;;;;;;;;5014437;28;20873;-90
2023/04/04 14:07:37;;;;;;;3.83;2.30;;;;;;;;;;5014627;28;20441;-90
2023/04/04 14:10:04;;;;;;;4.70;2.40;;;;;;;;;;5014615;28;20946;-92
2023/04/04 14:12:30;;;;;;;3.17;2.57;;;;;;;;;;5030911;28;20434;-90
2023/04/04 14:14:56;;;;;;;5.60;2.77;;;;;;;;;;5037220;28;20851;-88
2023/04/04 14:17:22;;;;;;;4.60;2.47;;;;;;;;;;5037180;28;20428;-89
2023/04/04 14:19:48;;;;;;;3.17;2.70;;;;;;;;;;5037203;28;20424;-89
2023/04/04 14:22:15;;;;;;;3.27;2.40;;;;;;;;;;5037086;28;20807;-89
2023/04/04 14:24:41;;;;;;;3.53;2.37;;;;;;;;;;5037279;28;20935;-89
2023/04/04 14:27:07;;;;;;;4.17;2.63;;;;;;;;;;5036891;28;20912;-89
2023/04/04 14:29:34;;;;;;;4.70;2.67;;;;;;;;;;5020674;28;20414;-91
2023/04/04 14:32:00;;;;;;;3.53;2.50;;;;;;;;;;5037697;28;20431;-90
2023/04/04 14:34:26;;;;;;;4.87;2.90;;;;;;;;;;5038515;28;20897;-92
2023/04/04 14:36:53;;;;;;;3.53;2.33;;;;;;;;;;5033439;28;20888;-92
2023/04/04 14:39:21;;;;;;;6.27;3.17;;;;;;;;;;5030110;28;20387;-92
2023/04/04 14:41:48;;;;;;;6.43;2.80;;;;;;;;;;5039409;28;20863;-91
2023/04/04 14:44:14;;;;;;;5.20;2.37;;;;;;;;;;5039621;28;20416;-92